Terminal Aerodrome Forecast
Issued by NWS

Home | Current Version | Previous Version | Text Only | Print | Product List | Glossary On
Versions: 1 2 3 4 5 6 7 8 9 10 11 12 13 14 15 16 17 18 19 20 21 22 23 24 25
496
FTUS44 KLIX 231736
TAFGPT
TAF
KGPT 231736Z 2318/2418 14008KT P6SM SKC
     FM240600 17008KT 5SM BR BKN003
     FM241100 18005KT 2SM BR BKN003
     FM241500 16006KT P6SM OVC015=

USA.gov is the U.S. government's official web portal to all federal, state and local government web resources and services.